createdAt,value
2023-04-06T00:01:24.772Z,0.30
2023-04-06T00:03:51.965Z,0.52
2023-04-06T00:06:18.680Z,0.43
2023-04-06T00:08:45.705Z,0.40
2023-04-06T00:11:12.580Z,0.60
2023-04-06T00:13:39.343Z,0.43
2023-04-06T00:16:06.997Z,0.50
2023-04-06T00:18:33.914Z,0.32
2023-04-06T00:21:01.441Z,0.30
2023-04-06T00:23:28.195Z,0.40
2023-04-06T00:25:55.290Z,0.50
2023-04-06T00:28:26.262Z,0.38
2023-04-06T00:30:56.463Z,0.50
2023-04-06T00:33:24.511Z,0.70
2023-04-06T00:35:51.955Z,0.45
2023-04-06T00:38:19.364Z,0.63
2023-04-06T00:40:49.207Z,0.50
2023-04-06T00:43:16.188Z,0.60
2023-04-06T00:45:46.229Z,0.70
2023-04-06T00:48:13.081Z,0.60
2023-04-06T00:50:39.786Z,0.57
2023-04-06T00:53:06.480Z,0.57
2023-04-06T00:55:33.289Z,0.90
2023-04-06T00:58:01.622Z,1.02
2023-04-06T01:00:28.421Z,0.50
2023-04-06T01:02:55.378Z,0.35
2023-04-06T01:05:25.367Z,0.65
2023-04-06T01:07:52.207Z,0.40
2023-04-06T01:10:27.016Z,0.40
2023-04-06T01:12:53.910Z,1.08
2023-04-06T01:15:22.179Z,0.60
2023-04-06T01:17:49.176Z,0.30
2023-04-06T01:20:16.672Z,0.30
2023-04-06T01:22:43.452Z,0.40
2023-04-06T01:25:11.922Z,1.17
2023-04-06T01:27:38.657Z,0.90
2023-04-06T01:30:07.048Z,0.60
2023-04-06T01:32:33.999Z,0.73
2023-04-06T01:35:00.738Z,0.73
2023-04-06T01:37:27.616Z,0.93
2023-04-06T01:39:54.356Z,0.60
2023-04-06T01:42:23.418Z,0.30
2023-04-06T01:44:50.342Z,0.32
2023-04-06T01:47:17.285Z,0.47
2023-04-06T01:49:46.570Z,0.40
2023-04-06T01:52:13.329Z,0.50
2023-04-06T01:54:40.405Z,0.22
2023-04-06T01:57:07.177Z,0.57
2023-04-06T01:59:34.028Z,0.32
2023-04-06T02:02:01.027Z,0.50
2023-04-06T02:04:30.911Z,0.47
2023-04-06T02:07:00.574Z,0.45
2023-04-06T02:09:27.291Z,1.08
2023-04-06T02:11:54.125Z,0.85
2023-04-06T02:14:21.037Z,0.93
2023-04-06T02:16:47.924Z,0.45
2023-04-06T02:19:14.651Z,0.68
2023-04-06T02:21:41.473Z,0.50
2023-04-06T02:24:08.251Z,0.30
2023-04-06T02:26:49.297Z,0.43
2023-04-06T02:29:16.116Z,0.30
2023-04-06T02:31:42.914Z,0.20
2023-04-06T02:34:12.035Z,0.50
2023-04-06T02:36:38.811Z,0.60
2023-04-06T02:39:05.633Z,0.47
2023-04-06T02:41:32.373Z,0.70
2023-04-06T02:43:59.125Z,0.35
2023-04-06T02:46:28.488Z,0.20
2023-04-06T02:48:55.773Z,0.53
2023-04-06T02:51:22.471Z,0.52
2023-04-06T02:53:49.382Z,0.60
2023-04-06T02:56:18.648Z,0.28
2023-04-06T02:58:45.428Z,0.45
2023-04-06T03:01:12.188Z,0.45
2023-04-06T03:03:39.178Z,0.52
2023-04-06T03:06:06.171Z,0.25
2023-04-06T03:08:33.007Z,0.15
2023-04-06T03:10:59.732Z,0.17
2023-04-06T03:13:26.519Z,0.40
2023-04-06T03:15:53.389Z,0.50
2023-04-06T03:18:24.115Z,0.40
2023-04-06T03:20:51.353Z,0.55
2023-04-06T03:23:18.397Z,0.63
2023-04-06T03:25:45.362Z,0.80
2023-04-06T03:28:12.106Z,0.70
2023-04-06T03:30:38.977Z,0.40
2023-04-06T03:33:06.184Z,0.28
2023-04-06T03:35:33.080Z,0.40
2023-04-06T03:38:02.204Z,0.28
2023-04-06T03:40:28.953Z,0.30
2023-04-06T03:42:55.733Z,0.55
2023-04-06T03:45:25.300Z,0.60
2023-04-06T03:47:52.078Z,0.60
2023-04-06T03:50:18.993Z,0.30
2023-04-06T03:52:51.913Z,0.30
2023-04-06T03:55:21.510Z,0.25
2023-04-06T03:57:48.454Z,0.30
2023-04-06T04:00:15.861Z,0.47
2023-04-06T04:02:43.074Z,0.43
2023-04-06T04:05:10.265Z,0.40
2023-04-06T04:07:37.088Z,0.55
2023-04-06T04:10:04.328Z,0.30
2023-04-06T04:12:31.022Z,0.60
2023-04-06T04:14:57.813Z,0.38
2023-04-06T04:17:27.331Z,0.22
2023-04-06T04:20:17.502Z,0.50
2023-04-06T04:22:44.280Z,0.70
2023-04-06T04:25:13.133Z,0.47
2023-04-06T04:27:39.911Z,0.17
2023-04-06T04:30:09.817Z,0.65
2023-04-06T04:32:58.282Z,0.40
2023-04-06T04:35:25.332Z,0.80
2023-04-06T04:37:52.254Z,0.38
2023-04-06T04:40:19.038Z,0.20
2023-04-06T04:42:46.058Z,0.70
2023-04-06T04:45:12.959Z,0.32
2023-04-06T04:47:39.753Z,0.93
2023-04-06T04:50:17.460Z,0.47
2023-04-06T04:52:47.299Z,0.40
2023-04-06T04:55:14.428Z,0.50
2023-04-06T04:57:41.179Z,0.30
2023-04-06T05:00:08.754Z,0.30
2023-04-06T05:03:37.485Z,0.63
2023-04-06T05:06:04.653Z,0.23
2023-04-06T05:08:46.748Z,0.70
2023-04-06T05:11:13.618Z,0.40
2023-04-06T05:13:42.432Z,0.20
2023-04-06T05:16:12.375Z,0.40
2023-04-06T05:18:45.622Z,0.20
2023-04-06T05:21:12.705Z,0.60
2023-04-06T05:23:39.480Z,0.30
2023-04-06T05:26:06.566Z,0.50
2023-04-06T05:28:36.406Z,0.50
2023-04-06T05:31:03.267Z,0.40
2023-04-06T05:33:30.266Z,0.50
2023-04-06T05:36:02.003Z,0.80
2023-04-06T05:38:28.887Z,0.65
2023-04-06T05:40:55.692Z,0.85
2023-04-06T05:43:23.621Z,0.68
2023-04-06T05:45:50.369Z,0.60
2023-04-06T05:48:17.142Z,0.20
2023-04-06T05:50:44.027Z,0.43
2023-04-06T05:53:10.830Z,0.57
2023-04-06T05:55:37.598Z,0.60
2023-04-06T05:58:04.389Z,0.80
2023-04-06T06:00:31.234Z,0.50
2023-04-06T06:03:00.350Z,0.55
2023-04-06T06:05:27.207Z,0.70
2023-04-06T06:07:54.049Z,0.50
2023-04-06T06:10:23.085Z,0.80
2023-04-06T06:12:49.922Z,1.20
2023-04-06T06:15:16.837Z,0.80
2023-04-06T06:17:46.654Z,0.60
2023-04-06T06:20:16.768Z,0.65
2023-04-06T06:22:43.470Z,1.05
2023-04-06T06:25:16.617Z,1.03
2023-04-06T06:27:43.990Z,0.80
2023-04-06T06:30:11.057Z,0.88
2023-04-06T06:32:38.001Z,1.30
2023-04-06T06:35:05.086Z,1.02
2023-04-06T06:37:34.325Z,0.95
2023-04-06T06:40:01.118Z,1.30
2023-04-06T06:42:27.822Z,1.27
2023-04-06T06:44:56.081Z,1.00
2023-04-06T06:47:27.194Z,0.70
2023-04-06T06:49:57.359Z,0.90
2023-04-06T06:52:25.098Z,1.33
2023-04-06T06:54:52.299Z,1.10
2023-04-06T06:57:19.442Z,1.20
2023-04-06T06:59:46.615Z,1.30
2023-04-06T07:02:13.323Z,1.53
2023-04-06T07:04:40.114Z,1.73
2023-04-06T07:07:07.047Z,1.75
2023-04-06T07:09:37.012Z,1.47
2023-04-06T07:12:03.854Z,1.00
2023-04-06T07:14:30.686Z,1.42
2023-04-06T07:16:57.495Z,1.73
2023-04-06T07:19:24.609Z,1.38
2023-04-06T07:21:51.435Z,1.38
2023-04-06T07:24:18.281Z,1.20
2023-04-06T07:26:47.839Z,1.00
2023-04-06T07:29:14.540Z,1.50
2023-04-06T07:31:41.418Z,1.65
2023-04-06T07:34:08.304Z,1.50
2023-04-06T07:36:37.534Z,1.43
2023-04-06T07:39:04.364Z,1.80
2023-04-06T07:41:33.915Z,1.30
2023-04-06T07:44:04.276Z,1.42
2023-04-06T07:46:34.696Z,1.65
2023-04-06T07:49:02.279Z,1.52
2023-04-06T07:51:32.360Z,1.88
2023-04-06T07:53:59.715Z,1.70
2023-04-06T07:56:28.979Z,1.30
2023-04-06T07:58:59.657Z,1.60
2023-04-06T08:01:27.264Z,1.90
2023-04-06T08:03:57.332Z,1.48
2023-04-06T08:06:24.662Z,2.00
2023-04-06T08:08:54.711Z,1.73
2023-04-06T08:11:22.348Z,1.80
2023-04-06T08:13:49.417Z,1.40
2023-04-06T08:16:16.597Z,1.70
2023-04-06T08:18:43.803Z,1.90
2023-04-06T08:21:14.004Z,1.65
2023-04-06T08:23:41.208Z,1.73
2023-04-06T08:26:08.550Z,1.90
2023-04-06T08:28:35.689Z,2.17
2023-04-06T08:31:08.796Z,1.60
2023-04-06T08:33:37.608Z,1.60
2023-04-06T08:36:14.725Z,1.75
2023-04-06T08:38:43.921Z,2.95
2023-04-06T08:41:14.855Z,1.83
2023-04-06T08:43:46.444Z,2.38
2023-04-06T08:46:13.941Z,2.03
2023-04-06T08:48:42.786Z,2.22
2023-04-06T08:51:11.517Z,1.97
2023-04-06T08:53:44.948Z,2.28
2023-04-06T08:56:12.383Z,2.10
2023-04-06T08:58:41.686Z,2.65
2023-04-06T09:01:16.746Z,1.98
2023-04-06T09:03:44.778Z,2.70
2023-04-06T09:06:12.966Z,2.42
2023-04-06T09:08:41.246Z,2.60
2023-04-06T09:11:11.307Z,1.80
2023-04-06T09:13:48.056Z,2.10
2023-04-06T09:16:18.668Z,2.17
2023-04-06T09:18:46.238Z,2.05
2023-04-06T09:21:13.732Z,2.10
2023-04-06T09:23:41.167Z,2.22
2023-04-06T09:26:09.424Z,2.40
2023-04-06T09:28:46.601Z,1.73
2023-04-06T09:31:14.878Z,2.80
2023-04-06T09:33:42.962Z,2.45
2023-04-06T09:36:10.817Z,3.23
2023-04-06T09:38:38.824Z,2.65
2023-04-06T09:41:06.573Z,2.15
2023-04-06T09:43:33.934Z,2.40
2023-04-06T09:46:04.207Z,2.05
2023-04-06T09:48:32.875Z,2.00
2023-04-06T09:51:01.518Z,2.63
2023-04-06T09:53:28.662Z,2.30
2023-04-06T09:56:01.186Z,2.42
2023-04-06T09:58:28.738Z,2.33
2023-04-06T10:00:55.937Z,2.42
2023-04-06T10:03:30.138Z,2.25
2023-04-06T10:06:02.050Z,2.30
2023-04-06T10:08:32.493Z,2.45
2023-04-06T10:11:01.579Z,2.90
2023-04-06T10:13:28.908Z,3.10
2023-04-06T10:15:58.528Z,2.50
2023-04-06T10:18:25.788Z,2.40
2023-04-06T10:20:57.802Z,1.90
2023-04-06T10:23:24.975Z,1.85
2023-04-06T10:25:56.001Z,2.10
2023-04-06T10:28:23.253Z,3.03
2023-04-06T10:31:03.487Z,2.50
2023-04-06T10:33:30.675Z,2.30
2023-04-06T10:35:57.965Z,2.38
2023-04-06T10:38:37.596Z,2.40
2023-04-06T10:41:07.516Z,2.83
2023-04-06T10:43:36.568Z,3.00
2023-04-06T10:46:06.094Z,3.13
2023-04-06T10:48:43.949Z,2.70
2023-04-06T10:51:14.991Z,3.10
2023-04-06T10:53:47.637Z,2.63
2023-04-06T10:56:15.870Z,2.78
2023-04-06T10:58:49.676Z,2.65
2023-04-06T11:01:17.861Z,2.40
2023-04-06T11:03:46.003Z,2.38
2023-04-06T11:06:19.382Z,1.77
2023-04-06T11:08:46.475Z,2.30
2023-04-06T11:11:22.870Z,2.83
2023-04-06T11:13:54.140Z,3.10
2023-04-06T11:16:28.395Z,2.33
2023-04-06T11:18:57.185Z,1.88
2023-04-06T11:21:40.782Z,2.17
2023-04-06T11:24:08.776Z,2.15
2023-04-06T11:27:02.392Z,1.70
2023-04-06T11:29:32.468Z,1.98
2023-04-06T11:32:00.953Z,2.57
2023-04-06T11:34:31.791Z,2.22
2023-04-06T11:37:00.179Z,1.80
2023-04-06T11:39:31.305Z,2.65
2023-04-06T11:42:07.608Z,2.17
2023-04-06T11:44:40.160Z,2.13
2023-04-06T11:47:10.560Z,2.40
2023-04-06T11:49:41.576Z,2.17
2023-04-06T11:52:19.015Z,2.28
2023-04-06T11:54:46.457Z,2.23
2023-04-06T11:57:13.675Z,2.70
2023-04-06T11:59:41.080Z,2.10
2023-04-06T12:02:08.310Z,2.47
2023-04-06T12:04:35.965Z,2.40
2023-04-06T12:07:03.253Z,2.40
2023-04-06T12:09:30.659Z,2.45
2023-04-06T12:11:58.247Z,1.98
2023-04-06T12:14:25.397Z,2.28
2023-04-06T12:16:52.545Z,2.15
2023-04-06T12:19:19.790Z,2.28
2023-04-06T12:21:46.909Z,2.08
2023-04-06T12:24:14.021Z,2.25
2023-04-06T12:26:42.956Z,2.13
2023-04-06T12:29:10.515Z,1.60
2023-04-06T12:31:39.649Z,2.28
2023-04-06T12:34:06.911Z,1.73
2023-04-06T12:36:34.404Z,2.23
2023-04-06T12:39:01.987Z,2.00
2023-04-06T12:41:32.087Z,2.33
2023-04-06T12:44:00.549Z,2.25
2023-04-06T12:46:28.117Z,1.40
2023-04-06T12:48:56.112Z,2.00
2023-04-06T12:51:23.455Z,1.85
2023-04-06T12:53:51.251Z,1.90
2023-04-06T12:56:19.643Z,2.17
2023-04-06T12:58:54.390Z,2.22
2023-04-06T13:01:22.163Z,2.13
2023-04-06T13:03:49.407Z,1.35
2023-04-06T13:06:16.561Z,1.48
2023-04-06T13:08:44.183Z,2.08
2023-04-06T13:11:11.492Z,1.67
2023-04-06T13:13:38.976Z,1.52
2023-04-06T13:16:07.834Z,2.03
2023-04-06T13:18:35.670Z,1.90
2023-04-06T13:21:02.814Z,2.17
2023-04-06T13:23:32.567Z,1.50
2023-04-06T13:26:07.002Z,1.67
2023-04-06T13:28:35.141Z,1.70
2023-04-06T13:31:03.116Z,1.45
2023-04-06T13:33:30.520Z,1.55
2023-04-06T13:35:57.980Z,1.40
2023-04-06T13:38:33.866Z,1.38
2023-04-06T13:41:01.193Z,1.70
2023-04-06T13:43:28.341Z,1.58
2023-04-06T13:45:56.911Z,1.30
2023-04-06T13:48:24.317Z,1.52
2023-04-06T13:50:51.635Z,1.95
2023-04-06T13:53:18.775Z,1.25
2023-04-06T13:55:53.558Z,1.05
2023-04-06T13:58:20.763Z,1.40
2023-04-06T14:00:55.273Z,1.47
2023-04-06T14:03:24.337Z,1.83
2023-04-06T14:05:51.509Z,1.42
2023-04-06T14:08:18.650Z,1.40
2023-04-06T14:10:47.845Z,1.97
2023-04-06T14:13:14.902Z,1.38
2023-04-06T14:15:44.549Z,1.40
2023-04-06T14:18:11.687Z,1.63
2023-04-06T14:20:38.857Z,1.52
2023-04-06T14:23:17.114Z,1.88
2023-04-06T14:25:47.872Z,1.45
2023-04-06T14:28:15.560Z,1.90
2023-04-06T14:30:43.481Z,1.40
2023-04-06T14:33:10.613Z,1.47
2023-04-06T14:35:40.965Z,1.65
2023-04-06T14:38:08.070Z,2.00
2023-04-06T14:40:37.201Z,1.75
2023-04-06T14:43:05.795Z,1.77
2023-04-06T14:45:35.832Z,1.95
2023-04-06T14:48:03.400Z,1.60
2023-04-06T14:50:30.439Z,1.80
2023-04-06T14:52:57.924Z,1.33
2023-04-06T14:55:28.228Z,1.13
2023-04-06T14:57:55.657Z,1.00
2023-04-06T15:00:22.738Z,1.67
2023-04-06T15:02:49.924Z,1.35
2023-04-06T15:05:17.088Z,1.30
2023-04-06T15:07:46.024Z,1.10
2023-04-06T15:10:13.966Z,0.85
2023-04-06T15:12:41.091Z,0.93
2023-04-06T15:15:08.534Z,1.08
2023-04-06T15:17:35.803Z,0.95
2023-04-06T15:20:03.256Z,1.10
2023-04-06T15:22:30.636Z,0.87
2023-04-06T15:24:57.840Z,1.02
2023-04-06T15:27:28.854Z,0.90
2023-04-06T15:30:03.182Z,1.17
2023-04-06T15:32:36.055Z,0.88
2023-04-06T15:35:09.886Z,0.80
2023-04-06T15:37:37.469Z,0.60
2023-04-06T15:40:08.062Z,0.80
2023-04-06T15:42:35.320Z,1.27
2023-04-06T15:45:02.846Z,1.27
2023-04-06T15:47:29.967Z,0.98
2023-04-06T15:49:57.480Z,1.05
2023-04-06T15:52:27.546Z,1.40
2023-04-06T15:54:54.606Z,0.90
2023-04-06T15:57:21.682Z,1.27
2023-04-06T15:59:48.996Z,1.10
2023-04-06T16:02:16.200Z,1.02
2023-04-06T16:04:43.377Z,1.00
2023-04-06T16:07:10.622Z,1.20
2023-04-06T16:09:37.761Z,0.90
2023-04-06T16:12:07.811Z,0.80
2023-04-06T16:14:35.403Z,1.02
2023-04-06T16:17:05.253Z,1.00
2023-04-06T16:19:32.451Z,0.70
2023-04-06T16:21:59.537Z,0.90
2023-04-06T16:24:26.723Z,0.60
2023-04-06T16:26:56.115Z,0.63
2023-04-06T16:29:30.317Z,0.70
2023-04-06T16:32:01.373Z,0.40
2023-04-06T16:34:32.587Z,0.40
2023-04-06T16:37:04.727Z,0.90
2023-04-06T16:39:34.914Z,0.65
2023-04-06T16:42:02.991Z,0.50
2023-04-06T16:44:37.542Z,0.60
2023-04-06T16:47:05.108Z,0.40
2023-04-06T16:49:32.159Z,0.73
2023-04-06T16:52:02.827Z,0.90
2023-04-06T16:54:30.038Z,0.73
2023-04-06T16:56:58.595Z,0.80
2023-04-06T16:59:26.314Z,0.50
2023-04-06T17:01:53.561Z,0.40
2023-04-06T17:04:22.088Z,0.80
2023-04-06T17:06:49.820Z,0.32
2023-04-06T17:09:16.965Z,0.57
2023-04-06T17:11:46.909Z,0.47
2023-04-06T17:14:14.410Z,0.50
2023-04-06T17:16:41.587Z,0.70
2023-04-06T17:19:08.713Z,0.40
2023-04-06T17:21:36.332Z,0.70
2023-04-06T17:24:03.479Z,0.60
2023-04-06T17:26:30.567Z,0.50
2023-04-06T17:28:58.388Z,0.80
2023-04-06T17:31:25.636Z,0.70
2023-04-06T17:33:52.809Z,0.80
2023-04-06T17:36:20.771Z,0.43
2023-04-06T17:38:48.975Z,0.50
2023-04-06T17:41:16.187Z,0.85
2023-04-06T17:43:43.350Z,0.50
2023-04-06T17:46:10.706Z,0.82
2023-04-06T17:48:37.869Z,0.47
2023-04-06T17:51:08.029Z,0.50
2023-04-06T17:53:37.232Z,0.70
2023-04-06T17:56:04.679Z,0.90
2023-04-06T17:58:32.113Z,0.57
2023-04-06T18:00:59.236Z,0.70
2023-04-06T18:03:29.277Z,0.85
2023-04-06T18:05:57.342Z,0.90
2023-04-06T18:08:24.427Z,0.50
2023-04-06T18:10:51.655Z,0.45
2023-04-06T18:13:19.986Z,0.75
2023-04-06T18:15:47.141Z,0.53
2023-04-06T18:18:16.646Z,0.60
2023-04-06T18:20:43.672Z,0.50
2023-04-06T18:23:10.866Z,0.65
2023-04-06T18:25:43.452Z,0.57
2023-04-06T18:28:10.612Z,0.80
2023-04-06T18:30:37.748Z,1.08
2023-04-06T18:33:06.737Z,0.65
2023-04-06T18:35:33.911Z,0.60
2023-04-06T18:38:01.017Z,0.70
2023-04-06T18:40:40.881Z,0.90
2023-04-06T18:43:08.970Z,1.00
2023-04-06T18:45:38.634Z,0.90
2023-04-06T18:48:06.001Z,0.73
2023-04-06T18:50:33.554Z,0.75
2023-04-06T18:53:00.696Z,0.70
2023-04-06T18:55:30.951Z,0.65
2023-04-06T18:58:00.383Z,1.00
2023-04-06T19:00:27.537Z,0.50
2023-04-06T19:02:54.808Z,0.65
2023-04-06T19:05:22.520Z,1.00
2023-04-06T19:07:52.796Z,0.68
2023-04-06T19:10:22.822Z,1.20
2023-04-06T19:12:49.879Z,0.75
2023-04-06T19:15:17.185Z,0.88
2023-04-06T19:17:44.294Z,0.63
2023-04-06T19:20:11.805Z,0.60
2023-04-06T19:22:39.237Z,0.63
2023-04-06T19:25:07.771Z,0.70
2023-04-06T19:27:34.796Z,1.10
2023-04-06T19:30:01.704Z,0.57
2023-04-06T19:32:30.148Z,0.70
2023-04-06T19:34:59.397Z,0.80
2023-04-06T19:37:26.636Z,0.70
2023-04-06T19:39:53.317Z,0.95
2023-04-06T19:42:30.470Z,0.70
2023-04-06T19:44:58.505Z,0.90
2023-04-06T19:47:25.567Z,1.25
2023-04-06T19:49:54.370Z,0.93
2023-04-06T19:52:22.548Z,1.03
2023-04-06T19:54:52.042Z,0.60
2023-04-06T19:57:18.714Z,0.80
2023-04-06T19:59:45.545Z,0.50
2023-04-06T20:02:12.444Z,0.95
2023-04-06T20:04:39.672Z,0.70
2023-04-06T20:07:06.379Z,0.93
2023-04-06T20:09:33.167Z,0.80
2023-04-06T20:12:00.741Z,1.00
2023-04-06T20:14:28.528Z,0.90
2023-04-06T20:16:55.367Z,0.90
2023-04-06T20:19:22.225Z,0.80
2023-04-06T20:21:48.928Z,1.00
2023-04-06T20:24:15.885Z,0.80
2023-04-06T20:26:42.604Z,0.55
2023-04-06T20:29:09.315Z,1.08
2023-04-06T20:31:36.234Z,0.75
2023-04-06T20:34:03.263Z,0.88
2023-04-06T20:36:32.307Z,1.30
2023-04-06T20:38:59.100Z,1.02
2023-04-06T20:41:25.784Z,1.45
2023-04-06T20:43:52.483Z,1.05
2023-04-06T20:46:22.258Z,1.00
2023-04-06T20:48:49.090Z,1.13
2023-04-06T20:51:20.416Z,0.60
2023-04-06T20:53:48.492Z,1.23
2023-04-06T20:56:15.924Z,1.10
2023-04-06T20:58:42.752Z,1.15
2023-04-06T21:01:15.124Z,1.42
2023-04-06T21:03:43.126Z,1.02
2023-04-06T21:06:10.875Z,0.75
2023-04-06T21:08:37.907Z,0.77
2023-04-06T21:11:05.147Z,1.02
2023-04-06T21:13:32.416Z,0.98
2023-04-06T21:15:59.799Z,0.95
2023-04-06T21:18:26.674Z,1.37
2023-04-06T21:20:53.937Z,1.55
2023-04-06T21:23:22.876Z,1.40
2023-04-06T21:25:51.819Z,1.10
2023-04-06T21:28:19.341Z,1.07
2023-04-06T21:30:46.575Z,1.23
2023-04-06T21:33:15.807Z,0.98
2023-04-06T21:35:43.041Z,1.10
2023-04-06T21:38:10.701Z,1.17
2023-04-06T21:40:37.950Z,1.70
2023-04-06T21:43:08.296Z,0.93
2023-04-06T21:45:35.875Z,0.93
2023-04-06T21:48:03.068Z,1.00
2023-04-06T21:50:30.250Z,1.08
2023-04-06T21:52:57.605Z,1.17
2023-04-06T21:55:24.903Z,1.30
2023-04-06T21:57:54.094Z,0.77
2023-04-06T22:00:21.466Z,0.75
2023-04-06T22:02:48.685Z,1.30
2023-04-06T22:05:15.952Z,1.80
2023-04-06T22:07:43.115Z,1.30
2023-04-06T22:10:13.022Z,1.27
2023-04-06T22:12:40.127Z,1.65
2023-04-06T22:15:10.890Z,1.75
2023-04-06T22:17:38.075Z,1.33
2023-04-06T22:20:05.485Z,1.70
2023-04-06T22:22:32.559Z,1.35
2023-04-06T22:25:01.018Z,1.50
2023-04-06T22:27:28.528Z,1.60
2023-04-06T22:29:56.415Z,1.42
2023-04-06T22:32:23.722Z,1.40
2023-04-06T22:34:50.940Z,1.80
2023-04-06T22:37:18.183Z,1.35
2023-04-06T22:39:48.261Z,1.80
2023-04-06T22:42:15.418Z,1.52
2023-04-06T22:44:42.695Z,1.77
2023-04-06T22:47:09.885Z,1.77
2023-04-06T22:49:37.042Z,1.55
2023-04-06T22:52:04.206Z,1.13
2023-04-06T22:54:34.378Z,1.95
2023-04-06T22:57:02.934Z,1.98
2023-04-06T22:59:30.070Z,1.87
2023-04-06T23:01:57.544Z,1.58
2023-04-06T23:04:25.320Z,2.08
2023-04-06T23:06:52.619Z,2.70
2023-04-06T23:09:19.786Z,1.98
2023-04-06T23:11:49.365Z,1.02
2023-04-06T23:14:17.537Z,1.95
2023-04-06T23:16:46.663Z,1.25
2023-04-06T23:19:14.166Z,1.15
2023-04-06T23:21:41.297Z,0.95
2023-04-06T23:24:08.398Z,1.73
2023-04-06T23:26:35.700Z,1.10
2023-04-06T23:29:02.820Z,1.23
2023-04-06T23:31:29.990Z,1.60
2023-04-06T23:33:57.055Z,1.60
2023-04-06T23:36:24.288Z,1.97
2023-04-06T23:38:53.804Z,1.60
2023-04-06T23:41:21.056Z,1.73
2023-04-06T23:43:48.133Z,2.07
2023-04-06T23:46:16.877Z,1.95
2023-04-06T23:48:46.805Z,1.85
2023-04-06T23:51:13.931Z,1.50
2023-04-06T23:53:41.370Z,1.85
2023-04-06T23:56:08.647Z,1.52
2023-04-06T23:58:36.169Z,1.48
